sensor_id;sensor_type;location;lat;lon;timestamp;temperature;humidity
25128;DHT22;13107;51.304;6.866;2023-09-19T00:03:20;15.00;99.90
25128;DHT22;13107;51.304;6.866;2023-09-19T00:07:22;14.90;99.90
25128;DHT22;13107;51.304;6.866;2023-09-19T00:11:24;14.90;99.90
25128;DHT22;13107;51.304;6.866;2023-09-19T00:15:28;14.90;99.90
25128;DHT22;13107;51.304;6.866;2023-09-19T00:19:30;14.90;99.90
25128;DHT22;13107;51.304;6.866;2023-09-19T00:23:32;14.80;99.90
25128;DHT22;13107;51.304;6.866;2023-09-19T00:27:34;14.80;99.90
25128;DHT22;13107;51.304;6.866;2023-09-19T00:31:36;14.70;99.90
25128;DHT22;13107;51.304;6.866;2023-09-19T00:35:49;14.80;99.90
25128;DHT22;13107;51.304;6.866;2023-09-19T00:39:51;14.80;99.90
25128;DHT22;13107;51.304;6.866;2023-09-19T00:43:53;14.70;99.90
25128;DHT22;13107;51.304;6.866;2023-09-19T00:47:55;14.80;99.90
25128;DHT22;13107;51.304;6.866;2023-09-19T00:51:59;14.80;99.90
25128;DHT22;13107;51.304;6.866;2023-09-19T00:56:02;14.70;99.90
25128;DHT22;13107;51.304;6.866;2023-09-19T01:00:09;14.70;99.90
25128;DHT22;13107;51.304;6.866;2023-09-19T01:04:21;14.70;99.90
25128;DHT22;13107;51.304;6.866;2023-09-19T01:08:23;14.70;99.90
25128;DHT22;13107;51.304;6.866;2023-09-19T01:21:29;14.70;99.90
25128;DHT22;13107;51.304;6.866;2023-09-19T01:25:50;14.70;99.90
25128;DHT22;13107;51.304;6.866;2023-09-19T01:30:14;14.70;99.90
25128;DHT22;13107;51.304;6.866;2023-09-19T01:34:16;14.70;99.90
25128;DHT22;13107;51.304;6.866;2023-09-19T01:38:20;14.70;99.90
25128;DHT22;13107;51.304;6.866;2023-09-19T01:42:35;14.70;99.90
25128;DHT22;13107;51.304;6.866;2023-09-19T01:46:40;14.70;99.90
25128;DHT22;13107;51.304;6.866;2023-09-19T01:51:05;14.70;99.90
25128;DHT22;13107;51.304;6.866;2023-09-19T01:55:09;14.70;99.90
25128;DHT22;13107;51.304;6.866;2023-09-19T01:59:14;14.70;99.90
25128;DHT22;13107;51.304;6.866;2023-09-19T02:03:18;14.60;99.90
25128;DHT22;13107;51.304;6.866;2023-09-19T02:07:24;14.70;99.90
25128;DHT22;13107;51.304;6.866;2023-09-19T02:11:25;14.60;99.90
25128;DHT22;13107;51.304;6.866;2023-09-19T02:15:27;14.60;99.90
25128;DHT22;13107;51.304;6.866;2023-09-19T02:19:29;14.60;99.90
25128;DHT22;13107;51.304;6.866;2023-09-19T02:23:33;14.60;99.90
25128;DHT22;13107;51.304;6.866;2023-09-19T02:27:35;14.60;99.90
25128;DHT22;13107;51.304;6.866;2023-09-19T02:31:37;14.60;99.90
25128;DHT22;13107;51.304;6.866;2023-09-19T02:35:39;14.60;99.90
25128;DHT22;13107;51.304;6.866;2023-09-19T02:39:41;14.50;99.90
25128;DHT22;13107;51.304;6.866;2023-09-19T02:43:43;14.50;99.90
25128;DHT22;13107;51.304;6.866;2023-09-19T02:47:49;14.50;99.90
25128;DHT22;13107;51.304;6.866;2023-09-19T02:51:51;14.50;99.90
25128;DHT22;13107;51.304;6.866;2023-09-19T02:55:53;14.40;99.90
25128;DHT22;13107;51.304;6.866;2023-09-19T02:59:55;14.40;99.90
25128;DHT22;13107;51.304;6.866;2023-09-19T03:03:57;14.40;99.90
25128;DHT22;13107;51.304;6.866;2023-09-19T03:08:00;14.30;99.90
25128;DHT22;13107;51.304;6.866;2023-09-19T03:12:02;14.20;99.90
25128;DHT22;13107;51.304;6.866;2023-09-19T03:16:05;14.30;99.90
25128;DHT22;13107;51.304;6.866;2023-09-19T03:20:08;14.30;99.90
25128;DHT22;13107;51.304;6.866;2023-09-19T03:24:10;14.30;99.90
25128;DHT22;13107;51.304;6.866;2023-09-19T03:28:13;14.30;99.90
25128;DHT22;13107;51.304;6.866;2023-09-19T03:32:15;14.20;99.90
25128;DHT22;13107;51.304;6.866;2023-09-19T03:36:16;14.30;99.90
25128;DHT22;13107;51.304;6.866;2023-09-19T03:40:18;14.30;99.90
25128;DHT22;13107;51.304;6.866;2023-09-19T03:44:23;14.20;99.90
25128;DHT22;13107;51.304;6.866;2023-09-19T03:48:25;14.20;99.90
25128;DHT22;13107;51.304;6.866;2023-09-19T03:52:26;14.20;99.90
25128;DHT22;13107;51.304;6.866;2023-09-19T03:56:28;14.10;99.90
25128;DHT22;13107;51.304;6.866;2023-09-19T04:00:30;14.20;99.90
25128;DHT22;13107;51.304;6.866;2023-09-19T04:04:32;14.10;99.90
25128;DHT22;13107;51.304;6.866;2023-09-19T04:08:33;14.20;99.90
25128;DHT22;13107;51.304;6.866;2023-09-19T04:12:35;14.10;99.90
25128;DHT22;13107;51.304;6.866;2023-09-19T04:16:37;14.10;99.90
25128;DHT22;13107;51.304;6.866;2023-09-19T04:20:40;14.20;99.90
25128;DHT22;13107;51.304;6.866;2023-09-19T04:24:42;14.10;99.90
25128;DHT22;13107;51.304;6.866;2023-09-19T04:28:44;14.20;99.90
25128;DHT22;13107;51.304;6.866;2023-09-19T04:32:47;14.20;99.90
25128;DHT22;13107;51.304;6.866;2023-09-19T04:36:53;14.20;99.90
25128;DHT22;13107;51.304;6.866;2023-09-19T04:40:57;14.20;99.90
25128;DHT22;13107;51.304;6.866;2023-09-19T04:45:00;14.20;99.90
25128;DHT22;13107;51.304;6.866;2023-09-19T04:49:02;14.20;99.90
25128;DHT22;13107;51.304;6.866;2023-09-19T04:53:04;14.20;99.90
25128;DHT22;13107;51.304;6.866;2023-09-19T04:57:06;14.20;99.90
25128;DHT22;13107;51.304;6.866;2023-09-19T05:01:08;14.20;99.90
25128;DHT22;13107;51.304;6.866;2023-09-19T05:05:13;14.20;99.90
25128;DHT22;13107;51.304;6.866;2023-09-19T05:09:16;14.20;99.90
25128;DHT22;13107;51.304;6.866;2023-09-19T05:13:21;14.20;99.90
25128;DHT22;13107;51.304;6.866;2023-09-19T05:17:25;14.20;99.90
25128;DHT22;13107;51.304;6.866;2023-09-19T05:21:27;14.10;99.90
25128;DHT22;13107;51.304;6.866;2023-09-19T05:25:34;14.20;99.90
25128;DHT22;13107;51.304;6.866;2023-09-19T05:29:38;14.20;99.90
25128;DHT22;13107;51.304;6.866;2023-09-19T05:33:40;14.20;99.90
25128;DHT22;13107;51.304;6.866;2023-09-19T05:37:42;14.30;99.90
25128;DHT22;13107;51.304;6.866;2023-09-19T05:41:44;14.30;99.90
25128;DHT22;13107;51.304;6.866;2023-09-19T05:45:46;14.40;99.90
25128;DHT22;13107;51.304;6.866;2023-09-19T05:49:48;14.50;99.90
25128;DHT22;13107;51.304;6.866;2023-09-19T05:53:51;14.60;99.90
25128;DHT22;13107;51.304;6.866;2023-09-19T05:57:56;14.60;99.90
25128;DHT22;13107;51.304;6.866;2023-09-19T06:01:58;14.60;99.90
25128;DHT22;13107;51.304;6.866;2023-09-19T06:06:02;14.60;99.90
25128;DHT22;13107;51.304;6.866;2023-09-19T06:10:04;14.60;99.90
25128;DHT22;13107;51.304;6.866;2023-09-19T06:14:10;14.70;99.90
25128;DHT22;13107;51.304;6.866;2023-09-19T06:18:12;14.70;99.90
25128;DHT22;13107;51.304;6.866;2023-09-19T06:22:18;14.70;99.90
25128;DHT22;13107;51.304;6.866;2023-09-19T06:26:20;14.70;99.90
25128;DHT22;13107;51.304;6.866;2023-09-19T06:30:23;14.70;99.90
25128;DHT22;13107;51.304;6.866;2023-09-19T06:34:27;14.80;99.90
25128;DHT22;13107;51.304;6.866;2023-09-19T06:38:28;14.80;99.90
25128;DHT22;13107;51.304;6.866;2023-09-19T06:42:30;14.90;99.90
25128;DHT22;13107;51.304;6.866;2023-09-19T06:46:32;14.90;99.90
25128;DHT22;13107;51.304;6.866;2023-09-19T06:50:36;14.90;99.90
25128;DHT22;13107;51.304;6.866;2023-09-19T06:54:38;15.00;99.90
25128;DHT22;13107;51.304;6.866;2023-09-19T06:58:41;15.00;99.90
25128;DHT22;13107;51.304;6.866;2023-09-19T07:02:45;15.00;99.90
25128;DHT22;13107;51.304;6.866;2023-09-19T07:06:50;15.10;99.90
25128;DHT22;13107;51.304;6.866;2023-09-19T07:10:51;15.10;99.90
25128;DHT22;13107;51.304;6.866;2023-09-19T07:14:54;15.10;99.90
25128;DHT22;13107;51.304;6.866;2023-09-19T07:18:56;15.10;99.90
25128;DHT22;13107;51.304;6.866;2023-09-19T07:22:59;15.20;99.90
25128;DHT22;13107;51.304;6.866;2023-09-19T07:27:01;15.30;99.90
25128;DHT22;13107;51.304;6.866;2023-09-19T07:31:03;15.40;99.90
25128;DHT22;13107;51.304;6.866;2023-09-19T07:35:07;15.40;99.90
25128;DHT22;13107;51.304;6.866;2023-09-19T07:39:09;15.50;99.90
25128;DHT22;13107;51.304;6.866;2023-09-19T07:43:23;15.50;99.90
25128;DHT22;13107;51.304;6.866;2023-09-19T07:47:26;15.60;99.90
25128;DHT22;13107;51.304;6.866;2023-09-19T07:51:29;15.60;99.90
25128;DHT22;13107;51.304;6.866;2023-09-19T07:55:30;15.70;99.90
25128;DHT22;13107;51.304;6.866;2023-09-19T07:59:34;15.60;99.90
25128;DHT22;13107;51.304;6.866;2023-09-19T08:03:36;15.70;99.90
25128;DHT22;13107;51.304;6.866;2023-09-19T08:07:45;15.80;99.90
25128;DHT22;13107;51.304;6.866;2023-09-19T08:11:50;15.90;99.90
25128;DHT22;13107;51.304;6.866;2023-09-19T08:15:52;16.00;99.90
25128;DHT22;13107;51.304;6.866;2023-09-19T08:19:55;16.10;99.90
25128;DHT22;13107;51.304;6.866;2023-09-19T08:23:57;16.20;99.90
25128;DHT22;13107;51.304;6.866;2023-09-19T08:27:58;16.20;99.90
25128;DHT22;13107;51.304;6.866;2023-09-19T08:32:03;16.30;99.90
25128;DHT22;13107;51.304;6.866;2023-09-19T08:36:06;16.30;99.90
25128;DHT22;13107;51.304;6.866;2023-09-19T08:40:09;16.40;99.90
25128;DHT22;13107;51.304;6.866;2023-09-19T08:44:11;16.60;99.90
25128;DHT22;13107;51.304;6.866;2023-09-19T08:48:24;16.80;99.90
25128;DHT22;13107;51.304;6.866;2023-09-19T08:52:32;17.00;99.90
25128;DHT22;13107;51.304;6.866;2023-09-19T08:56:35;16.90;99.90
25128;DHT22;13107;51.304;6.866;2023-09-19T09:00:41;17.00;99.90
25128;DHT22;13107;51.304;6.866;2023-09-19T09:04:45;17.10;99.90
25128;DHT22;13107;51.304;6.866;2023-09-19T09:08:50;17.30;99.90
25128;DHT22;13107;51.304;6.866;2023-09-19T09:12:53;17.20;99.90
25128;DHT22;13107;51.304;6.866;2023-09-19T09:16:56;17.20;99.90
25128;DHT22;13107;51.304;6.866;2023-09-19T09:21:00;17.40;99.90
25128;DHT22;13107;51.304;6.866;2023-09-19T09:25:02;17.40;99.90
25128;DHT22;13107;51.304;6.866;2023-09-19T09:29:06;17.80;99.90
25128;DHT22;13107;51.304;6.866;2023-09-19T09:33:12;18.30;99.90
25128;DHT22;13107;51.304;6.866;2023-09-19T09:37:16;19.20;99.90
25128;DHT22;13107;51.304;6.866;2023-09-19T09:41:36;19.60;99.90
25128;DHT22;13107;51.304;6.866;2023-09-19T09:45:39;19.50;99.90
25128;DHT22;13107;51.304;6.866;2023-09-19T09:49:49;19.00;99.90
25128;DHT22;13107;51.304;6.866;2023-09-19T09:54:10;18.90;99.90
25128;DHT22;13107;51.304;6.866;2023-09-19T09:58:17;18.70;99.90
25128;DHT22;13107;51.304;6.866;2023-09-19T10:02:30;19.10;99.90
25128;DHT22;13107;51.304;6.866;2023-09-19T10:06:41;19.30;99.90
25128;DHT22;13107;51.304;6.866;2023-09-19T10:10:48;19.70;99.90
25128;DHT22;13107;51.304;6.866;2023-09-19T10:15:05;19.70;99.90
25128;DHT22;13107;51.304;6.866;2023-09-19T10:19:09;20.20;99.90
25128;DHT22;13107;51.304;6.866;2023-09-19T10:23:12;20.10;99.90
25128;DHT22;13107;51.304;6.866;2023-09-19T10:27:14;20.60;99.90
25128;DHT22;13107;51.304;6.866;2023-09-19T10:31:22;20.70;99.90
25128;DHT22;13107;51.304;6.866;2023-09-19T10:35:28;20.60;99.90
25128;DHT22;13107;51.304;6.866;2023-09-19T10:39:30;20.90;99.90
25128;DHT22;13107;51.304;6.866;2023-09-19T10:43:33;20.80;99.90
25128;DHT22;13107;51.304;6.866;2023-09-19T10:47:38;20.30;99.90
25128;DHT22;13107;51.304;6.866;2023-09-19T10:51:41;19.80;99.90
25128;DHT22;13107;51.304;6.866;2023-09-19T10:55:59;19.50;99.90
25128;DHT22;13107;51.304;6.866;2023-09-19T11:00:06;19.60;99.90
25128;DHT22;13107;51.304;6.866;2023-09-19T11:04:26;19.60;99.90
25128;DHT22;13107;51.304;6.866;2023-09-19T11:08:28;19.80;99.90
25128;DHT22;13107;51.304;6.866;2023-09-19T11:30:27;20.60;99.90
25128;DHT22;13107;51.304;6.866;2023-09-19T11:42:48;19.40;99.90
25128;DHT22;13107;51.304;6.866;2023-09-19T11:46:56;19.30;99.90
25128;DHT22;13107;51.304;6.866;2023-09-19T11:51:00;19.80;99.90
25128;DHT22;13107;51.304;6.866;2023-09-19T11:55:08;20.10;99.90
25128;DHT22;13107;51.304;6.866;2023-09-19T11:59:22;19.70;99.90
25128;DHT22;13107;51.304;6.866;2023-09-19T12:03:29;19.70;99.90
25128;DHT22;13107;51.304;6.866;2023-09-19T12:07:45;20.00;99.90
25128;DHT22;13107;51.304;6.866;2023-09-19T12:11:49;20.10;99.90
25128;DHT22;13107;51.304;6.866;2023-09-19T12:15:51;19.90;99.90
25128;DHT22;13107;51.304;6.866;2023-09-19T12:19:55;19.60;99.90
25128;DHT22;13107;51.304;6.866;2023-09-19T12:28:16;19.90;99.90
25128;DHT22;13107;51.304;6.866;2023-09-19T12:32:43;20.00;99.90
25128;DHT22;13107;51.304;6.866;2023-09-19T12:36:46;20.10;99.90
25128;DHT22;13107;51.304;6.866;2023-09-19T12:40:49;20.10;99.90
25128;DHT22;13107;51.304;6.866;2023-09-19T12:44:53;20.20;99.90
25128;DHT22;13107;51.304;6.866;2023-09-19T12:49:20;20.10;99.90
25128;DHT22;13107;51.304;6.866;2023-09-19T12:53:25;20.20;99.90
25128;DHT22;13107;51.304;6.866;2023-09-19T12:57:27;20.20;99.90
25128;DHT22;13107;51.304;6.866;2023-09-19T13:01:29;20.30;99.90
25128;DHT22;13107;51.304;6.866;2023-09-19T13:06:00;20.30;99.90
25128;DHT22;13107;51.304;6.866;2023-09-19T13:10:04;20.30;99.90
25128;DHT22;13107;51.304;6.866;2023-09-19T13:14:22;20.40;99.90
25128;DHT22;13107;51.304;6.866;2023-09-19T13:18:40;20.50;99.90
25128;DHT22;13107;51.304;6.866;2023-09-19T13:22:45;20.60;99.90
25128;DHT22;13107;51.304;6.866;2023-09-19T13:26:51;20.40;99.90
25128;DHT22;13107;51.304;6.866;2023-09-19T13:30:52;20.50;99.90
25128;DHT22;13107;51.304;6.866;2023-09-19T13:34:54;20.20;99.90
25128;DHT22;13107;51.304;6.866;2023-09-19T13:38:56;20.20;99.90
25128;DHT22;13107;51.304;6.866;2023-09-19T13:42:58;20.10;99.90
25128;DHT22;13107;51.304;6.866;2023-09-19T13:47:00;20.00;99.90
25128;DHT22;13107;51.304;6.866;2023-09-19T13:51:03;20.20;99.90
25128;DHT22;13107;51.304;6.866;2023-09-19T13:55:05;20.00;99.90
25128;DHT22;13107;51.304;6.866;2023-09-19T13:59:09;19.70;99.90
25128;DHT22;13107;51.304;6.866;2023-09-19T14:03:11;19.40;99.90
25128;DHT22;13107;51.304;6.866;2023-09-19T14:07:12;19.40;99.90
25128;DHT22;13107;51.304;6.866;2023-09-19T14:11:16;19.40;99.90
25128;DHT22;13107;51.304;6.866;2023-09-19T14:15:18;19.30;99.90
25128;DHT22;13107;51.304;6.866;2023-09-19T14:19:20;19.20;99.90
25128;DHT22;13107;51.304;6.866;2023-09-19T14:23:22;19.20;99.90
25128;DHT22;13107;51.304;6.866;2023-09-19T14:27:24;19.20;99.90
25128;DHT22;13107;51.304;6.866;2023-09-19T14:31:27;19.20;99.90
25128;DHT22;13107;51.304;6.866;2023-09-19T14:35:29;19.10;99.90
25128;DHT22;13107;51.304;6.866;2023-09-19T14:39:31;19.10;99.90
25128;DHT22;13107;51.304;6.866;2023-09-19T14:43:33;19.10;99.90
25128;DHT22;13107;51.304;6.866;2023-09-19T14:47:34;19.10;99.90
25128;DHT22;13107;51.304;6.866;2023-09-19T14:51:38;19.10;99.90
25128;DHT22;13107;51.304;6.866;2023-09-19T14:55:41;19.10;99.90
25128;DHT22;13107;51.304;6.866;2023-09-19T14:59:46;19.00;99.90
25128;DHT22;13107;51.304;6.866;2023-09-19T15:03:48;19.00;99.90
25128;DHT22;13107;51.304;6.866;2023-09-19T15:07:51;18.90;99.90
25128;DHT22;13107;51.304;6.866;2023-09-19T15:11:53;18.80;99.90
25128;DHT22;13107;51.304;6.866;2023-09-19T15:15:59;18.80;99.90
25128;DHT22;13107;51.304;6.866;2023-09-19T15:20:02;18.80;99.90
25128;DHT22;13107;51.304;6.866;2023-09-19T15:24:05;18.80;99.90
25128;DHT22;13107;51.304;6.866;2023-09-19T15:28:06;18.80;99.90
25128;DHT22;13107;51.304;6.866;2023-09-19T15:32:09;18.80;99.90
25128;DHT22;13107;51.304;6.866;2023-09-19T15:36:13;18.80;99.90
25128;DHT22;13107;51.304;6.866;2023-09-19T15:40:15;18.80;99.90
25128;DHT22;13107;51.304;6.866;2023-09-19T15:44:18;18.80;99.90
25128;DHT22;13107;51.304;6.866;2023-09-19T15:48:20;19.00;99.90
25128;DHT22;13107;51.304;6.866;2023-09-19T15:52:23;19.10;99.90
25128;DHT22;13107;51.304;6.866;2023-09-19T15:56:27;19.10;99.90
25128;DHT22;13107;51.304;6.866;2023-09-19T16:00:29;19.00;99.90
25128;DHT22;13107;51.304;6.866;2023-09-19T16:04:31;19.00;99.90
25128;DHT22;13107;51.304;6.866;2023-09-19T16:08:38;19.00;99.90
25128;DHT22;13107;51.304;6.866;2023-09-19T16:12:40;18.80;99.90
25128;DHT22;13107;51.304;6.866;2023-09-19T16:16:42;18.80;99.90
25128;DHT22;13107;51.304;6.866;2023-09-19T16:20:44;18.80;99.90
25128;DHT22;13107;51.304;6.866;2023-09-19T16:24:46;18.80;99.90
25128;DHT22;13107;51.304;6.866;2023-09-19T16:28:50;18.80;99.90
25128;DHT22;13107;51.304;6.866;2023-09-19T16:32:52;18.70;99.90
25128;DHT22;13107;51.304;6.866;2023-09-19T16:36:54;18.70;99.90
25128;DHT22;13107;51.304;6.866;2023-09-19T16:40:57;18.70;99.90
25128;DHT22;13107;51.304;6.866;2023-09-19T16:45:01;18.70;99.90
25128;DHT22;13107;51.304;6.866;2023-09-19T16:49:03;18.70;99.90
25128;DHT22;13107;51.304;6.866;2023-09-19T16:53:06;18.70;99.90
25128;DHT22;13107;51.304;6.866;2023-09-19T16:57:11;18.70;99.90
25128;DHT22;13107;51.304;6.866;2023-09-19T17:01:13;18.70;99.90
25128;DHT22;13107;51.304;6.866;2023-09-19T17:05:16;18.60;99.90
25128;DHT22;13107;51.304;6.866;2023-09-19T17:09:19;18.50;99.90
25128;DHT22;13107;51.304;6.866;2023-09-19T17:13:21;18.50;99.90
25128;DHT22;13107;51.304;6.866;2023-09-19T17:17:23;18.60;99.90
25128;DHT22;13107;51.304;6.866;2023-09-19T17:21:26;18.50;99.90
25128;DHT22;13107;51.304;6.866;2023-09-19T17:25:28;18.50;99.90
25128;DHT22;13107;51.304;6.866;2023-09-19T17:29:32;18.40;99.90
25128;DHT22;13107;51.304;6.866;2023-09-19T17:33:35;18.40;99.90
25128;DHT22;13107;51.304;6.866;2023-09-19T17:37:37;18.40;99.90
25128;DHT22;13107;51.304;6.866;2023-09-19T17:41:41;18.40;99.90
25128;DHT22;13107;51.304;6.866;2023-09-19T17:45:43;18.30;99.90
25128;DHT22;13107;51.304;6.866;2023-09-19T17:49:45;18.30;99.90
25128;DHT22;13107;51.304;6.866;2023-09-19T17:53:50;18.20;99.90
25128;DHT22;13107;51.304;6.866;2023-09-19T17:57:53;18.30;99.90
25128;DHT22;13107;51.304;6.866;2023-09-19T18:01:58;18.30;99.90
25128;DHT22;13107;51.304;6.866;2023-09-19T18:06:00;18.30;99.90
25128;DHT22;13107;51.304;6.866;2023-09-19T18:10:02;18.20;99.90
25128;DHT22;13107;51.304;6.866;2023-09-19T18:14:05;18.20;99.90
25128;DHT22;13107;51.304;6.866;2023-09-19T18:18:07;18.20;99.90
25128;DHT22;13107;51.304;6.866;2023-09-19T18:22:09;18.10;99.90
25128;DHT22;13107;51.304;6.866;2023-09-19T18:26:13;18.20;99.90
25128;DHT22;13107;51.304;6.866;2023-09-19T18:30:15;18.20;99.90
25128;DHT22;13107;51.304;6.866;2023-09-19T18:34:17;18.20;99.90
25128;DHT22;13107;51.304;6.866;2023-09-19T18:38:19;18.20;99.90
25128;DHT22;13107;51.304;6.866;2023-09-19T18:42:21;18.10;99.90
25128;DHT22;13107;51.304;6.866;2023-09-19T18:46:24;18.20;99.90
25128;DHT22;13107;51.304;6.866;2023-09-19T18:50:26;18.20;99.90
25128;DHT22;13107;51.304;6.866;2023-09-19T18:54:28;18.10;99.90
25128;DHT22;13107;51.304;6.866;2023-09-19T18:58:30;18.10;99.90
25128;DHT22;13107;51.304;6.866;2023-09-19T19:02:33;18.10;99.90
25128;DHT22;13107;51.304;6.866;2023-09-19T19:06:34;18.10;99.90
25128;DHT22;13107;51.304;6.866;2023-09-19T19:10:40;18.00;99.90
25128;DHT22;13107;51.304;6.866;2023-09-19T19:14:43;18.00;99.90
25128;DHT22;13107;51.304;6.866;2023-09-19T19:18:47;18.10;99.90
25128;DHT22;13107;51.304;6.866;2023-09-19T19:22:51;18.00;99.90
25128;DHT22;13107;51.304;6.866;2023-09-19T19:26:52;18.00;99.90
25128;DHT22;13107;51.304;6.866;2023-09-19T19:30:54;18.00;99.90
25128;DHT22;13107;51.304;6.866;2023-09-19T19:34:56;17.90;99.90
25128;DHT22;13107;51.304;6.866;2023-09-19T19:38:58;17.90;99.90
25128;DHT22;13107;51.304;6.866;2023-09-19T19:43:02;17.90;99.90
25128;DHT22;13107;51.304;6.866;2023-09-19T19:47:04;17.90;99.90
25128;DHT22;13107;51.304;6.866;2023-09-19T19:51:07;17.90;99.90
25128;DHT22;13107;51.304;6.866;2023-09-19T19:55:09;17.90;99.90
25128;DHT22;13107;51.304;6.866;2023-09-19T19:59:11;17.90;99.90
25128;DHT22;13107;51.304;6.866;2023-09-19T20:03:14;17.90;99.90
25128;DHT22;13107;51.304;6.866;2023-09-19T20:07:16;17.90;99.90
25128;DHT22;13107;51.304;6.866;2023-09-19T20:11:18;17.80;99.90
25128;DHT22;13107;51.304;6.866;2023-09-19T20:15:28;17.80;99.90
25128;DHT22;13107;51.304;6.866;2023-09-19T20:19:31;17.80;99.90
25128;DHT22;13107;51.304;6.866;2023-09-19T20:23:39;17.80;99.90
25128;DHT22;13107;51.304;6.866;2023-09-19T20:27:43;17.80;99.90
25128;DHT22;13107;51.304;6.866;2023-09-19T20:31:45;17.80;99.90
25128;DHT22;13107;51.304;6.866;2023-09-19T20:35:47;17.80;99.90
25128;DHT22;13107;51.304;6.866;2023-09-19T20:39:48;17.80;99.90
25128;DHT22;13107;51.304;6.866;2023-09-19T20:43:50;17.80;99.90
25128;DHT22;13107;51.304;6.866;2023-09-19T20:47:52;17.80;99.90
25128;DHT22;13107;51.304;6.866;2023-09-19T20:51:55;17.70;99.90
25128;DHT22;13107;51.304;6.866;2023-09-19T20:56:01;17.70;99.90
25128;DHT22;13107;51.304;6.866;2023-09-19T21:00:07;17.60;99.90
25128;DHT22;13107;51.304;6.866;2023-09-19T21:04:10;17.60;99.90
25128;DHT22;13107;51.304;6.866;2023-09-19T21:08:12;17.50;99.90
25128;DHT22;13107;51.304;6.866;2023-09-19T21:12:13;17.50;99.90
25128;DHT22;13107;51.304;6.866;2023-09-19T21:16:16;17.40;99.90
25128;DHT22;13107;51.304;6.866;2023-09-19T21:20:18;17.50;99.90
25128;DHT22;13107;51.304;6.866;2023-09-19T21:24:24;17.50;99.90
25128;DHT22;13107;51.304;6.866;2023-09-19T21:28:31;17.50;99.90
25128;DHT22;13107;51.304;6.866;2023-09-19T21:32:32;17.50;99.90
25128;DHT22;13107;51.304;6.866;2023-09-19T21:36:35;17.30;99.90
25128;DHT22;13107;51.304;6.866;2023-09-19T21:40:37;17.30;99.90
25128;DHT22;13107;51.304;6.866;2023-09-19T21:44:39;17.30;99.90
25128;DHT22;13107;51.304;6.866;2023-09-19T21:48:41;17.30;99.90
25128;DHT22;13107;51.304;6.866;2023-09-19T21:52:43;17.30;99.90
25128;DHT22;13107;51.304;6.866;2023-09-19T21:56:45;17.40;99.90
25128;DHT22;13107;51.304;6.866;2023-09-19T22:00:53;17.50;99.90
25128;DHT22;13107;51.304;6.866;2023-09-19T22:04:56;17.50;99.90
25128;DHT22;13107;51.304;6.866;2023-09-19T22:09:00;17.50;99.90
25128;DHT22;13107;51.304;6.866;2023-09-19T22:13:02;17.50;99.90
25128;DHT22;13107;51.304;6.866;2023-09-19T22:17:04;17.40;99.90
25128;DHT22;13107;51.304;6.866;2023-09-19T22:21:06;17.50;99.90
25128;DHT22;13107;51.304;6.866;2023-09-19T22:25:15;17.50;99.90
25128;DHT22;13107;51.304;6.866;2023-09-19T22:29:19;17.50;99.90
25128;DHT22;13107;51.304;6.866;2023-09-19T22:33:23;17.50;99.90
25128;DHT22;13107;51.304;6.866;2023-09-19T22:37:24;17.60;99.90
25128;DHT22;13107;51.304;6.866;2023-09-19T22:41:30;17.50;99.90
25128;DHT22;13107;51.304;6.866;2023-09-19T22:45:33;17.60;99.90
25128;DHT22;13107;51.304;6.866;2023-09-19T22:49:37;17.60;99.90
25128;DHT22;13107;51.304;6.866;2023-09-19T22:53:40;17.60;99.90
25128;DHT22;13107;51.304;6.866;2023-09-19T22:57:46;17.70;99.90
25128;DHT22;13107;51.304;6.866;2023-09-19T23:01:49;17.60;99.90
25128;DHT22;13107;51.304;6.866;2023-09-19T23:05:51;17.70;99.90
25128;DHT22;13107;51.304;6.866;2023-09-19T23:09:53;17.80;99.90
25128;DHT22;13107;51.304;6.866;2023-09-19T23:13:55;17.80;99.90
25128;DHT22;13107;51.304;6.866;2023-09-19T23:18:00;17.80;99.90
25128;DHT22;13107;51.304;6.866;2023-09-19T23:22:02;17.80;99.90
25128;DHT22;13107;51.304;6.866;2023-09-19T23:26:18;17.70;99.90
25128;DHT22;13107;51.304;6.866;2023-09-19T23:30:21;17.80;99.90
25128;DHT22;13107;51.304;6.866;2023-09-19T23:34:29;17.80;99.90
25128;DHT22;13107;51.304;6.866;2023-09-19T23:38:31;17.80;99.90
25128;DHT22;13107;51.304;6.866;2023-09-19T23:42:34;17.80;99.90
25128;DHT22;13107;51.304;6.866;2023-09-19T23:46:36;17.80;99.90
25128;DHT22;13107;51.304;6.866;2023-09-19T23:50:40;17.70;99.90
25128;DHT22;13107;51.304;6.866;2023-09-19T23:54:48;17.80;99.90
25128;DHT22;13107;51.304;6.866;2023-09-19T23:58:49;17.80;99.90
